Reading Regional Carl A Spaatz Field
KRDG : rendu visible

Aérodrome :











RETROUVEZ-NOUS SUR...

 
LOGIN :

S'inscrire | Disclaimer

   EN    FR    IT 

 









Légende :    VFR   VFR Marginal   IFR   IFR Intensif   IFR Très Intensif
Visi : 
Plafond : 
>= 8 km
>= 3000ft
5 à 8 km
1000 à 3000 ft
1500m à 5 km
500 à 1000 ft
800 à 1500m
200 à 500 ft
< 800m
< 200 ft
Symboles :   Orages  Brouillard  Fortes neiges  Fortes précipitations  Vent > 20 kt






- Altitude de l'aérodrome : 344 ft
- Code IATA : RDG


KRDG - Reading Regional Carl A Spaatz Field

DERNIER METAR :
  • 040254Z 35007KT 10SM OVC043 09/04 A2991 RMK AO2 SLP134 60000 T00940039 51012

METARs EXPIRÉS :
  • 040154Z 33006KT 10SM SCT032 BKN048 OVC080 09/04 A2990 RMK AO2 RAB09E30 SLP132 P0000 T00940039
  • 040054Z 33009KT 10SM FEW032 OVC080 09/04 A2989 RMK AO2 RAB09E22 SLP128 P0000 T00890039

TAF KRDG
Valide du 04 à 00h jusqu'au 05 à 00h UTC


032325Z 0400/0424 33010G18KT P6SM VCSH SCT035 OVC070
FM040400 33008KT P6SM VCSH OVC040
FM040800 VRB04KT P6SM OVC025
FM042000 30005KT P6SM BKN035



MET'MAP, la Météo Aéronautique d'un coup d'oeil ! - Copyright ORBIFLY Décembre 2007 - Disclaimer

ORBIFLY MET'MAP TEAM :

Programmation & Développement : Alexandra Zaïnal
Sur une idée originale de : Baudouin d'Aumeries
Assistance à la programmation : Marc-Olivier Méhu
Soutien technique & logistique : Manuel Goepfert

Contact : metmap@orbifly.com




SOURCES & CREDITS :

   NOAA       Earth
Advisory